sensor_id;sensor_type;location;lat;lon;timestamp;temperature;humidity
8002;DHT22;4046;48.774;8.732;2022-07-22T00:01:17;18.80;99.90
8002;DHT22;4046;48.774;8.732;2022-07-22T00:03:42;18.70;99.90
8002;DHT22;4046;48.774;8.732;2022-07-22T00:06:08;18.80;99.90
8002;DHT22;4046;48.774;8.732;2022-07-22T00:08:34;19.00;99.90
8002;DHT22;4046;48.774;8.732;2022-07-22T00:11:00;19.10;99.90
8002;DHT22;4046;48.774;8.732;2022-07-22T00:13:25;19.20;99.90
8002;DHT22;4046;48.774;8.732;2022-07-22T00:15:51;19.30;99.90
8002;DHT22;4046;48.774;8.732;2022-07-22T00:18:17;19.30;99.90
8002;DHT22;4046;48.774;8.732;2022-07-22T00:20:42;19.10;99.90
8002;DHT22;4046;48.774;8.732;2022-07-22T00:23:08;19.10;99.90
8002;DHT22;4046;48.774;8.732;2022-07-22T00:25:34;19.10;99.90
8002;DHT22;4046;48.774;8.732;2022-07-22T00:28:00;18.90;99.90
8002;DHT22;4046;48.774;8.732;2022-07-22T00:30:26;18.70;99.90
8002;DHT22;4046;48.774;8.732;2022-07-22T00:32:51;18.30;99.90
8002;DHT22;4046;48.774;8.732;2022-07-22T00:35:17;18.00;99.90
8002;DHT22;4046;48.774;8.732;2022-07-22T00:37:43;17.90;99.90
8002;DHT22;4046;48.774;8.732;2022-07-22T00:40:09;18.00;99.90
8002;DHT22;4046;48.774;8.732;2022-07-22T00:42:35;18.00;99.90
8002;DHT22;4046;48.774;8.732;2022-07-22T00:45:01;18.30;99.90
8002;DHT22;4046;48.774;8.732;2022-07-22T00:47:27;18.50;99.90
8002;DHT22;4046;48.774;8.732;2022-07-22T00:49:53;18.60;99.90
8002;DHT22;4046;48.774;8.732;2022-07-22T00:52:19;18.40;99.90
8002;DHT22;4046;48.774;8.732;2022-07-22T00:54:45;18.30;99.90
8002;DHT22;4046;48.774;8.732;2022-07-22T00:57:11;18.40;99.90
8002;DHT22;4046;48.774;8.732;2022-07-22T00:59:37;18.50;99.90
8002;DHT22;4046;48.774;8.732;2022-07-22T01:02:03;18.40;99.90
8002;DHT22;4046;48.774;8.732;2022-07-22T01:04:28;18.20;99.90
8002;DHT22;4046;48.774;8.732;2022-07-22T01:06:54;17.90;99.90
8002;DHT22;4046;48.774;8.732;2022-07-22T01:09:20;17.80;99.90
8002;DHT22;4046;48.774;8.732;2022-07-22T01:11:46;17.90;99.90
8002;DHT22;4046;48.774;8.732;2022-07-22T01:14:12;17.90;99.90
8002;DHT22;4046;48.774;8.732;2022-07-22T01:16:37;17.80;99.90
8002;DHT22;4046;48.774;8.732;2022-07-22T01:19:04;17.80;99.90
8002;DHT22;4046;48.774;8.732;2022-07-22T01:21:30;18.00;99.90
8002;DHT22;4046;48.774;8.732;2022-07-22T01:23:56;17.80;99.90
8002;DHT22;4046;48.774;8.732;2022-07-22T01:26:22;17.90;99.90
8002;DHT22;4046;48.774;8.732;2022-07-22T01:28:49;17.90;99.90
8002;DHT22;4046;48.774;8.732;2022-07-22T01:31:14;17.90;99.90
8002;DHT22;4046;48.774;8.732;2022-07-22T01:33:40;18.10;99.90
8002;DHT22;4046;48.774;8.732;2022-07-22T01:36:06;18.00;99.90
8002;DHT22;4046;48.774;8.732;2022-07-22T01:38:32;18.20;99.90
8002;DHT22;4046;48.774;8.732;2022-07-22T01:40:58;18.20;99.90
8002;DHT22;4046;48.774;8.732;2022-07-22T01:43:24;18.30;99.90
8002;DHT22;4046;48.774;8.732;2022-07-22T01:45:51;18.30;99.90
8002;DHT22;4046;48.774;8.732;2022-07-22T01:48:18;18.30;99.90
8002;DHT22;4046;48.774;8.732;2022-07-22T01:50:44;18.30;99.90
8002;DHT22;4046;48.774;8.732;2022-07-22T01:53:10;18.50;99.90
8002;DHT22;4046;48.774;8.732;2022-07-22T01:55:36;18.50;99.90
8002;DHT22;4046;48.774;8.732;2022-07-22T01:58:02;18.50;99.90
8002;DHT22;4046;48.774;8.732;2022-07-22T02:00:30;18.50;99.90
8002;DHT22;4046;48.774;8.732;2022-07-22T02:02:56;18.20;99.90
8002;DHT22;4046;48.774;8.732;2022-07-22T02:05:22;18.20;99.90
8002;DHT22;4046;48.774;8.732;2022-07-22T02:07:47;18.20;99.90
8002;DHT22;4046;48.774;8.732;2022-07-22T02:10:13;18.20;99.90
8002;DHT22;4046;48.774;8.732;2022-07-22T02:12:39;17.90;99.90
8002;DHT22;4046;48.774;8.732;2022-07-22T02:15:06;17.90;99.90
8002;DHT22;4046;48.774;8.732;2022-07-22T02:17:33;18.00;99.90
8002;DHT22;4046;48.774;8.732;2022-07-22T02:19:59;18.00;99.90
8002;DHT22;4046;48.774;8.732;2022-07-22T02:22:25;18.10;99.90
8002;DHT22;4046;48.774;8.732;2022-07-22T02:24:50;18.10;99.90
8002;DHT22;4046;48.774;8.732;2022-07-22T02:27:16;18.00;99.90
8002;DHT22;4046;48.774;8.732;2022-07-22T02:29:42;18.00;99.90
8002;DHT22;4046;48.774;8.732;2022-07-22T02:32:08;18.00;99.90
8002;DHT22;4046;48.774;8.732;2022-07-22T02:34:33;17.90;99.90
8002;DHT22;4046;48.774;8.732;2022-07-22T02:36:59;18.00;99.90
8002;DHT22;4046;48.774;8.732;2022-07-22T02:39:25;17.90;99.90
8002;DHT22;4046;48.774;8.732;2022-07-22T02:41:50;17.70;99.90
8002;DHT22;4046;48.774;8.732;2022-07-22T02:44:16;17.70;99.90
8002;DHT22;4046;48.774;8.732;2022-07-22T02:46:42;17.70;99.90
8002;DHT22;4046;48.774;8.732;2022-07-22T02:49:08;17.50;99.90
8002;DHT22;4046;48.774;8.732;2022-07-22T02:51:33;17.40;99.90
8002;DHT22;4046;48.774;8.732;2022-07-22T02:53:59;17.50;99.90
8002;DHT22;4046;48.774;8.732;2022-07-22T02:56:25;17.60;99.90
8002;DHT22;4046;48.774;8.732;2022-07-22T02:58:51;17.50;99.90
8002;DHT22;4046;48.774;8.732;2022-07-22T03:01:19;17.70;99.90
8002;DHT22;4046;48.774;8.732;2022-07-22T03:03:45;17.70;99.90
8002;DHT22;4046;48.774;8.732;2022-07-22T03:06:11;17.80;99.90
8002;DHT22;4046;48.774;8.732;2022-07-22T03:08:37;17.70;99.90
8002;DHT22;4046;48.774;8.732;2022-07-22T03:11:03;17.60;99.90
8002;DHT22;4046;48.774;8.732;2022-07-22T03:13:29;17.70;99.90
8002;DHT22;4046;48.774;8.732;2022-07-22T03:15:55;17.60;99.90
8002;DHT22;4046;48.774;8.732;2022-07-22T03:18:21;17.60;99.90
8002;DHT22;4046;48.774;8.732;2022-07-22T03:20:47;17.60;99.90
8002;DHT22;4046;48.774;8.732;2022-07-22T03:23:13;17.60;99.90
8002;DHT22;4046;48.774;8.732;2022-07-22T03:25:39;17.60;99.90
8002;DHT22;4046;48.774;8.732;2022-07-22T03:28:05;17.70;99.90
8002;DHT22;4046;48.774;8.732;2022-07-22T03:30:31;17.70;99.90
8002;DHT22;4046;48.774;8.732;2022-07-22T03:32:57;17.70;99.90
8002;DHT22;4046;48.774;8.732;2022-07-22T03:35:22;17.80;99.90
8002;DHT22;4046;48.774;8.732;2022-07-22T03:37:48;17.90;99.90
8002;DHT22;4046;48.774;8.732;2022-07-22T03:40:14;17.90;99.90
8002;DHT22;4046;48.774;8.732;2022-07-22T03:42:40;17.80;99.90
8002;DHT22;4046;48.774;8.732;2022-07-22T03:45:07;17.70;99.90
8002;DHT22;4046;48.774;8.732;2022-07-22T03:47:33;17.60;99.90
8002;DHT22;4046;48.774;8.732;2022-07-22T03:49:58;17.50;99.90
8002;DHT22;4046;48.774;8.732;2022-07-22T03:52:25;17.40;99.90
8002;DHT22;4046;48.774;8.732;2022-07-22T03:54:51;17.50;99.90
8002;DHT22;4046;48.774;8.732;2022-07-22T03:57:17;17.50;99.90
8002;DHT22;4046;48.774;8.732;2022-07-22T03:59:42;17.50;99.90
8002;DHT22;4046;48.774;8.732;2022-07-22T04:02:08;17.40;99.90
8002;DHT22;4046;48.774;8.732;2022-07-22T04:04:34;17.20;99.90
8002;DHT22;4046;48.774;8.732;2022-07-22T04:06:59;17.20;99.90
8002;DHT22;4046;48.774;8.732;2022-07-22T04:09:25;17.10;99.90
8002;DHT22;4046;48.774;8.732;2022-07-22T04:11:51;17.10;99.90
8002;DHT22;4046;48.774;8.732;2022-07-22T04:14:17;17.20;99.90
8002;DHT22;4046;48.774;8.732;2022-07-22T04:16:43;17.40;99.90
8002;DHT22;4046;48.774;8.732;2022-07-22T04:19:12;17.50;99.90
8002;DHT22;4046;48.774;8.732;2022-07-22T04:21:38;17.60;99.90
8002;DHT22;4046;48.774;8.732;2022-07-22T04:24:04;17.70;99.90
8002;DHT22;4046;48.774;8.732;2022-07-22T04:26:29;17.80;99.90
8002;DHT22;4046;48.774;8.732;2022-07-22T04:28:55;17.80;99.90
8002;DHT22;4046;48.774;8.732;2022-07-22T04:31:21;17.70;99.90
8002;DHT22;4046;48.774;8.732;2022-07-22T04:33:47;17.60;99.90
8002;DHT22;4046;48.774;8.732;2022-07-22T04:36:12;17.50;99.90
8002;DHT22;4046;48.774;8.732;2022-07-22T04:38:38;17.20;99.90
8002;DHT22;4046;48.774;8.732;2022-07-22T04:41:04;16.70;99.90
8002;DHT22;4046;48.774;8.732;2022-07-22T04:43:30;16.60;99.90
8002;DHT22;4046;48.774;8.732;2022-07-22T04:45:56;16.50;99.90
8002;DHT22;4046;48.774;8.732;2022-07-22T04:48:22;16.50;99.90
8002;DHT22;4046;48.774;8.732;2022-07-22T04:50:47;16.60;99.90
8002;DHT22;4046;48.774;8.732;2022-07-22T04:53:13;16.60;99.90
8002;DHT22;4046;48.774;8.732;2022-07-22T04:55:39;16.80;99.90
8002;DHT22;4046;48.774;8.732;2022-07-22T04:58:05;16.90;99.90
8002;DHT22;4046;48.774;8.732;2022-07-22T05:00:31;17.10;99.90
8002;DHT22;4046;48.774;8.732;2022-07-22T05:02:57;17.10;99.90
8002;DHT22;4046;48.774;8.732;2022-07-22T05:05:24;17.10;99.90
8002;DHT22;4046;48.774;8.732;2022-07-22T05:07:50;17.20;99.90
8002;DHT22;4046;48.774;8.732;2022-07-22T05:10:16;17.40;99.90
8002;DHT22;4046;48.774;8.732;2022-07-22T05:12:43;17.50;99.90
8002;DHT22;4046;48.774;8.732;2022-07-22T05:15:09;17.60;99.90
8002;DHT22;4046;48.774;8.732;2022-07-22T05:17:34;17.50;99.90
8002;DHT22;4046;48.774;8.732;2022-07-22T05:20:04;17.60;99.90
8002;DHT22;4046;48.774;8.732;2022-07-22T05:22:30;17.50;99.90
8002;DHT22;4046;48.774;8.732;2022-07-22T05:24:56;17.60;99.90
8002;DHT22;4046;48.774;8.732;2022-07-22T05:27:22;17.70;99.90
8002;DHT22;4046;48.774;8.732;2022-07-22T05:29:47;17.80;99.90
8002;DHT22;4046;48.774;8.732;2022-07-22T05:32:14;17.70;99.90
8002;DHT22;4046;48.774;8.732;2022-07-22T05:34:39;17.60;99.90
8002;DHT22;4046;48.774;8.732;2022-07-22T05:37:05;17.70;99.90
8002;DHT22;4046;48.774;8.732;2022-07-22T05:39:31;17.70;99.90
8002;DHT22;4046;48.774;8.732;2022-07-22T05:41:56;17.80;99.90
8002;DHT22;4046;48.774;8.732;2022-07-22T05:44:22;17.80;99.90
8002;DHT22;4046;48.774;8.732;2022-07-22T05:46:48;17.90;99.90
8002;DHT22;4046;48.774;8.732;2022-07-22T05:49:14;18.00;99.90
8002;DHT22;4046;48.774;8.732;2022-07-22T05:51:39;18.20;99.90
8002;DHT22;4046;48.774;8.732;2022-07-22T05:54:05;18.30;99.90
8002;DHT22;4046;48.774;8.732;2022-07-22T05:56:31;18.40;99.90
8002;DHT22;4046;48.774;8.732;2022-07-22T05:58:56;18.40;99.90
8002;DHT22;4046;48.774;8.732;2022-07-22T06:01:22;18.20;99.90
8002;DHT22;4046;48.774;8.732;2022-07-22T06:03:48;18.20;99.90
8002;DHT22;4046;48.774;8.732;2022-07-22T06:06:14;18.20;99.90
8002;DHT22;4046;48.774;8.732;2022-07-22T06:08:40;18.50;99.90
8002;DHT22;4046;48.774;8.732;2022-07-22T06:11:06;18.70;99.90
8002;DHT22;4046;48.774;8.732;2022-07-22T06:13:32;18.60;99.90
8002;DHT22;4046;48.774;8.732;2022-07-22T06:15:58;18.60;99.90
8002;DHT22;4046;48.774;8.732;2022-07-22T06:18:24;18.90;99.90
8002;DHT22;4046;48.774;8.732;2022-07-22T06:20:50;19.00;99.90
8002;DHT22;4046;48.774;8.732;2022-07-22T06:23:16;19.10;99.90
8002;DHT22;4046;48.774;8.732;2022-07-22T06:25:43;19.10;99.90
8002;DHT22;4046;48.774;8.732;2022-07-22T06:28:10;19.20;99.90
8002;DHT22;4046;48.774;8.732;2022-07-22T06:30:36;19.20;99.90
8002;DHT22;4046;48.774;8.732;2022-07-22T06:33:02;19.30;99.90
8002;DHT22;4046;48.774;8.732;2022-07-22T06:35:28;19.50;99.90
8002;DHT22;4046;48.774;8.732;2022-07-22T06:37:54;19.50;99.90
8002;DHT22;4046;48.774;8.732;2022-07-22T06:40:20;19.60;99.90
8002;DHT22;4046;48.774;8.732;2022-07-22T06:42:46;19.80;99.90
8002;DHT22;4046;48.774;8.732;2022-07-22T06:45:12;20.00;99.90
8002;DHT22;4046;48.774;8.732;2022-07-22T06:47:37;20.20;99.90
8002;DHT22;4046;48.774;8.732;2022-07-22T06:50:04;20.20;99.90
8002;DHT22;4046;48.774;8.732;2022-07-22T06:52:30;20.30;99.90
8002;DHT22;4046;48.774;8.732;2022-07-22T06:54:56;20.50;99.90
8002;DHT22;4046;48.774;8.732;2022-07-22T06:57:22;20.70;99.90
8002;DHT22;4046;48.774;8.732;2022-07-22T06:59:48;20.80;99.90
8002;DHT22;4046;48.774;8.732;2022-07-22T07:02:13;21.10;99.90
8002;DHT22;4046;48.774;8.732;2022-07-22T07:04:39;20.90;99.90
8002;DHT22;4046;48.774;8.732;2022-07-22T07:07:05;21.00;99.90
8002;DHT22;4046;48.774;8.732;2022-07-22T07:09:30;21.20;99.90
8002;DHT22;4046;48.774;8.732;2022-07-22T07:11:56;21.40;99.90
8002;DHT22;4046;48.774;8.732;2022-07-22T07:14:22;21.50;99.90
8002;DHT22;4046;48.774;8.732;2022-07-22T07:16:48;21.60;99.90
8002;DHT22;4046;48.774;8.732;2022-07-22T07:19:13;21.80;99.90
8002;DHT22;4046;48.774;8.732;2022-07-22T07:21:39;22.00;99.90
8002;DHT22;4046;48.774;8.732;2022-07-22T07:24:05;22.20;99.90
8002;DHT22;4046;48.774;8.732;2022-07-22T07:26:31;22.40;99.90
8002;DHT22;4046;48.774;8.732;2022-07-22T07:28:56;22.50;99.90
8002;DHT22;4046;48.774;8.732;2022-07-22T07:31:22;22.60;99.90
8002;DHT22;4046;48.774;8.732;2022-07-22T07:33:48;22.90;99.90
8002;DHT22;4046;48.774;8.732;2022-07-22T07:36:14;23.10;99.90
8002;DHT22;4046;48.774;8.732;2022-07-22T07:38:40;23.20;99.90
8002;DHT22;4046;48.774;8.732;2022-07-22T07:41:05;23.30;99.90
8002;DHT22;4046;48.774;8.732;2022-07-22T07:43:31;23.40;99.90
8002;DHT22;4046;48.774;8.732;2022-07-22T07:45:57;23.60;99.90
8002;DHT22;4046;48.774;8.732;2022-07-22T07:48:23;23.60;99.90
8002;DHT22;4046;48.774;8.732;2022-07-22T07:50:49;23.80;99.90
8002;DHT22;4046;48.774;8.732;2022-07-22T07:53:16;24.00;99.90
8002;DHT22;4046;48.774;8.732;2022-07-22T07:55:41;24.10;99.90
8002;DHT22;4046;48.774;8.732;2022-07-22T07:58:07;24.30;99.90
8002;DHT22;4046;48.774;8.732;2022-07-22T08:00:33;24.20;99.90
8002;DHT22;4046;48.774;8.732;2022-07-22T08:03:00;24.40;99.90
8002;DHT22;4046;48.774;8.732;2022-07-22T08:05:27;24.50;99.90
8002;DHT22;4046;48.774;8.732;2022-07-22T08:07:53;24.60;99.90
8002;DHT22;4046;48.774;8.732;2022-07-22T08:10:20;24.70;99.90
8002;DHT22;4046;48.774;8.732;2022-07-22T08:12:47;24.80;99.90
8002;DHT22;4046;48.774;8.732;2022-07-22T08:15:14;24.70;99.90
8002;DHT22;4046;48.774;8.732;2022-07-22T08:17:39;24.50;99.90
8002;DHT22;4046;48.774;8.732;2022-07-22T08:20:06;24.70;99.90
8002;DHT22;4046;48.774;8.732;2022-07-22T08:22:32;24.80;99.90
8002;DHT22;4046;48.774;8.732;2022-07-22T08:24:58;25.00;99.90
8002;DHT22;4046;48.774;8.732;2022-07-22T08:27:23;25.10;99.90
8002;DHT22;4046;48.774;8.732;2022-07-22T08:29:49;25.10;99.90
8002;DHT22;4046;48.774;8.732;2022-07-22T08:32:15;25.00;99.90
8002;DHT22;4046;48.774;8.732;2022-07-22T08:34:41;25.00;99.90
8002;DHT22;4046;48.774;8.732;2022-07-22T08:37:06;24.80;99.90
8002;DHT22;4046;48.774;8.732;2022-07-22T08:39:32;24.50;99.90
8002;DHT22;4046;48.774;8.732;2022-07-22T08:41:59;24.60;99.90
8002;DHT22;4046;48.774;8.732;2022-07-22T08:44:29;24.80;99.90
8002;DHT22;4046;48.774;8.732;2022-07-22T08:46:55;24.80;99.90
8002;DHT22;4046;48.774;8.732;2022-07-22T08:49:21;25.00;99.90
8002;DHT22;4046;48.774;8.732;2022-07-22T08:51:47;25.30;99.90
8002;DHT22;4046;48.774;8.732;2022-07-22T08:54:13;25.70;99.90
8002;DHT22;4046;48.774;8.732;2022-07-22T08:56:39;25.90;99.90
8002;DHT22;4046;48.774;8.732;2022-07-22T08:59:04;26.20;99.90
8002;DHT22;4046;48.774;8.732;2022-07-22T09:01:30;26.50;99.90
8002;DHT22;4046;48.774;8.732;2022-07-22T09:03:57;26.70;99.90
8002;DHT22;4046;48.774;8.732;2022-07-22T09:06:24;26.60;99.90
8002;DHT22;4046;48.774;8.732;2022-07-22T09:09:03;26.50;99.90
8002;DHT22;4046;48.774;8.732;2022-07-22T09:11:31;26.30;99.90
8002;DHT22;4046;48.774;8.732;2022-07-22T09:13:58;26.60;99.90
8002;DHT22;4046;48.774;8.732;2022-07-22T09:16:46;27.00;99.90
8002;DHT22;4046;48.774;8.732;2022-07-22T09:19:13;27.70;99.90
8002;DHT22;4046;48.774;8.732;2022-07-22T09:21:42;27.90;99.90
8002;DHT22;4046;48.774;8.732;2022-07-22T09:24:09;28.30;99.90
8002;DHT22;4046;48.774;8.732;2022-07-22T09:26:54;29.00;99.90
8002;DHT22;4046;48.774;8.732;2022-07-22T09:29:19;29.50;99.90
8002;DHT22;4046;48.774;8.732;2022-07-22T09:31:50;29.00;99.90
8002;DHT22;4046;48.774;8.732;2022-07-22T09:34:27;29.20;99.90
8002;DHT22;4046;48.774;8.732;2022-07-22T09:36:54;28.30;99.90
8002;DHT22;4046;48.774;8.732;2022-07-22T09:39:25;28.90;99.90
8002;DHT22;4046;48.774;8.732;2022-07-22T09:42:05;29.90;99.90
8002;DHT22;4046;48.774;8.732;2022-07-22T09:44:31;29.80;99.90
8002;DHT22;4046;48.774;8.732;2022-07-22T09:46:57;30.50;99.90
8002;DHT22;4046;48.774;8.732;2022-07-22T09:49:33;31.10;99.90
8002;DHT22;4046;48.774;8.732;2022-07-22T09:52:01;30.70;99.90
8002;DHT22;4046;48.774;8.732;2022-07-22T09:54:29;29.50;99.90
8002;DHT22;4046;48.774;8.732;2022-07-22T09:56:55;28.90;99.90
8002;DHT22;4046;48.774;8.732;2022-07-22T09:59:21;29.10;99.90
8002;DHT22;4046;48.774;8.732;2022-07-22T10:01:47;29.10;99.90
8002;DHT22;4046;48.774;8.732;2022-07-22T10:04:16;28.70;99.90
8002;DHT22;4046;48.774;8.732;2022-07-22T10:06:44;29.40;99.90
8002;DHT22;4046;48.774;8.732;2022-07-22T10:09:11;30.10;99.90
8002;DHT22;4046;48.774;8.732;2022-07-22T10:11:38;30.30;99.90
8002;DHT22;4046;48.774;8.732;2022-07-22T10:14:14;30.00;99.90
8002;DHT22;4046;48.774;8.732;2022-07-22T10:16:41;30.20;99.90
8002;DHT22;4046;48.774;8.732;2022-07-22T10:19:08;30.60;99.90
8002;DHT22;4046;48.774;8.732;2022-07-22T10:21:34;30.00;99.90
8002;DHT22;4046;48.774;8.732;2022-07-22T10:24:14;29.80;99.90
8002;DHT22;4046;48.774;8.732;2022-07-22T10:27:01;30.30;99.90
8002;DHT22;4046;48.774;8.732;2022-07-22T10:35:18;32.20;99.90
8002;DHT22;4046;48.774;8.732;2022-07-22T10:40:11;31.00;99.90
8002;DHT22;4046;48.774;8.732;2022-07-22T10:43:03;32.10;99.90
8002;DHT22;4046;48.774;8.732;2022-07-22T10:45:41;32.90;99.90
8002;DHT22;4046;48.774;8.732;2022-07-22T10:48:11;32.90;99.90
8002;DHT22;4046;48.774;8.732;2022-07-22T10:50:38;32.20;99.90
8002;DHT22;4046;48.774;8.732;2022-07-22T10:53:21;31.70;99.90
8002;DHT22;4046;48.774;8.732;2022-07-22T10:56:13;31.10;99.90
8002;DHT22;4046;48.774;8.732;2022-07-22T11:01:37;31.50;99.90
8002;DHT22;4046;48.774;8.732;2022-07-22T11:06:39;32.20;99.90
8002;DHT22;4046;48.774;8.732;2022-07-22T11:09:10;31.60;99.90
8002;DHT22;4046;48.774;8.732;2022-07-22T11:11:38;30.60;99.90
8002;DHT22;4046;48.774;8.732;2022-07-22T11:14:28;30.60;99.90
8002;DHT22;4046;48.774;8.732;2022-07-22T11:17:10;30.80;99.90
8002;DHT22;4046;48.774;8.732;2022-07-22T11:19:37;31.60;99.90
8002;DHT22;4046;48.774;8.732;2022-07-22T11:22:08;32.80;99.90
8002;DHT22;4046;48.774;8.732;2022-07-22T11:24:35;33.40;99.90
8002;DHT22;4046;48.774;8.732;2022-07-22T11:27:02;32.70;99.90
8002;DHT22;4046;48.774;8.732;2022-07-22T11:29:36;33.40;99.90
8002;DHT22;4046;48.774;8.732;2022-07-22T11:32:06;32.50;99.90
8002;DHT22;4046;48.774;8.732;2022-07-22T11:34:32;33.10;99.90
8002;DHT22;4046;48.774;8.732;2022-07-22T11:37:00;33.50;99.90
8002;DHT22;4046;48.774;8.732;2022-07-22T11:39:27;31.70;99.90
8002;DHT22;4046;48.774;8.732;2022-07-22T11:41:56;31.90;99.90
8002;DHT22;4046;48.774;8.732;2022-07-22T11:44:25;32.70;99.90
8002;DHT22;4046;48.774;8.732;2022-07-22T11:46:51;33.60;99.90
8002;DHT22;4046;48.774;8.732;2022-07-22T11:49:20;34.30;99.90
8002;DHT22;4046;48.774;8.732;2022-07-22T11:51:47;34.30;99.90
8002;DHT22;4046;48.774;8.732;2022-07-22T11:54:13;35.00;99.90
8002;DHT22;4046;48.774;8.732;2022-07-22T11:56:39;35.10;99.90
8002;DHT22;4046;48.774;8.732;2022-07-22T11:59:06;35.10;99.90
8002;DHT22;4046;48.774;8.732;2022-07-22T12:01:34;35.00;99.90
8002;DHT22;4046;48.774;8.732;2022-07-22T12:04:08;35.40;99.90
8002;DHT22;4046;48.774;8.732;2022-07-22T12:06:37;36.00;99.90
8002;DHT22;4046;48.774;8.732;2022-07-22T12:09:16;36.50;99.90
8002;DHT22;4046;48.774;8.732;2022-07-22T12:11:46;36.40;99.90
8002;DHT22;4046;48.774;8.732;2022-07-22T12:14:21;34.90;99.90
8002;DHT22;4046;48.774;8.732;2022-07-22T12:16:58;34.10;99.90
8002;DHT22;4046;48.774;8.732;2022-07-22T12:19:26;34.50;99.90
8002;DHT22;4046;48.774;8.732;2022-07-22T12:22:00;34.30;99.90
8002;DHT22;4046;48.774;8.732;2022-07-22T12:24:41;34.50;99.90
8002;DHT22;4046;48.774;8.732;2022-07-22T12:27:09;33.90;99.90
8002;DHT22;4046;48.774;8.732;2022-07-22T12:34:41;34.40;99.90
8002;DHT22;4046;48.774;8.732;2022-07-22T12:37:22;34.60;99.90
8002;DHT22;4046;48.774;8.732;2022-07-22T12:42:43;33.40;99.90
8002;DHT22;4046;48.774;8.732;2022-07-22T12:45:17;32.80;99.90
8002;DHT22;4046;48.774;8.732;2022-07-22T12:52:41;32.50;99.90
8002;DHT22;4046;48.774;8.732;2022-07-22T12:55:07;33.40;99.90
8002;DHT22;4046;48.774;8.732;2022-07-22T12:57:33;34.00;99.90
8002;DHT22;4046;48.774;8.732;2022-07-22T12:59:58;34.90;99.90
8002;DHT22;4046;48.774;8.732;2022-07-22T13:02:24;35.80;99.90
8002;DHT22;4046;48.774;8.732;2022-07-22T13:04:50;36.30;99.90
8002;DHT22;4046;48.774;8.732;2022-07-22T13:07:16;36.50;99.90
8002;DHT22;4046;48.774;8.732;2022-07-22T13:09:41;36.40;99.90
8002;DHT22;4046;48.774;8.732;2022-07-22T13:12:07;36.00;99.90
8002;DHT22;4046;48.774;8.732;2022-07-22T13:14:33;34.70;99.90
8002;DHT22;4046;48.774;8.732;2022-07-22T13:16:58;33.20;99.90
8002;DHT22;4046;48.774;8.732;2022-07-22T13:19:24;32.50;99.90
8002;DHT22;4046;48.774;8.732;2022-07-22T13:21:50;31.90;99.90
8002;DHT22;4046;48.774;8.732;2022-07-22T13:24:15;32.50;99.90
8002;DHT22;4046;48.774;8.732;2022-07-22T13:26:41;32.70;99.90
8002;DHT22;4046;48.774;8.732;2022-07-22T13:29:07;33.10;99.90
8002;DHT22;4046;48.774;8.732;2022-07-22T13:31:33;34.00;99.90
8002;DHT22;4046;48.774;8.732;2022-07-22T13:33:59;34.90;99.90
8002;DHT22;4046;48.774;8.732;2022-07-22T13:36:24;35.90;99.90
8002;DHT22;4046;48.774;8.732;2022-07-22T13:38:50;36.00;99.90
8002;DHT22;4046;48.774;8.732;2022-07-22T13:41:17;35.30;99.90
8002;DHT22;4046;48.774;8.732;2022-07-22T13:43:43;34.20;99.90
8002;DHT22;4046;48.774;8.732;2022-07-22T13:46:12;34.60;99.90
8002;DHT22;4046;48.774;8.732;2022-07-22T13:48:38;35.10;99.90
8002;DHT22;4046;48.774;8.732;2022-07-22T13:51:03;35.60;99.90
8002;DHT22;4046;48.774;8.732;2022-07-22T13:53:30;35.80;99.90
8002;DHT22;4046;48.774;8.732;2022-07-22T13:55:56;34.50;99.90
8002;DHT22;4046;48.774;8.732;2022-07-22T13:58:22;33.40;99.90
8002;DHT22;4046;48.774;8.732;2022-07-22T14:00:48;32.90;99.90
8002;DHT22;4046;48.774;8.732;2022-07-22T14:03:13;32.80;99.90
8002;DHT22;4046;48.774;8.732;2022-07-22T14:05:39;32.90;99.90
8002;DHT22;4046;48.774;8.732;2022-07-22T14:08:05;33.30;99.90
8002;DHT22;4046;48.774;8.732;2022-07-22T14:10:30;33.70;99.90
8002;DHT22;4046;48.774;8.732;2022-07-22T14:12:56;34.00;99.90
8002;DHT22;4046;48.774;8.732;2022-07-22T14:15:22;33.80;99.90
8002;DHT22;4046;48.774;8.732;2022-07-22T14:17:48;33.50;99.90
8002;DHT22;4046;48.774;8.732;2022-07-22T14:20:13;33.10;99.90
8002;DHT22;4046;48.774;8.732;2022-07-22T14:22:39;33.00;99.90
8002;DHT22;4046;48.774;8.732;2022-07-22T14:25:05;33.00;99.90
8002;DHT22;4046;48.774;8.732;2022-07-22T14:27:30;33.00;99.90
8002;DHT22;4046;48.774;8.732;2022-07-22T14:29:56;32.80;99.90
8002;DHT22;4046;48.774;8.732;2022-07-22T14:32:22;32.70;99.90
8002;DHT22;4046;48.774;8.732;2022-07-22T14:34:48;32.50;99.90
8002;DHT22;4046;48.774;8.732;2022-07-22T14:37:13;32.60;99.90
8002;DHT22;4046;48.774;8.732;2022-07-22T14:39:39;32.80;99.90
8002;DHT22;4046;48.774;8.732;2022-07-22T14:42:05;32.90;99.90
8002;DHT22;4046;48.774;8.732;2022-07-22T14:44:31;33.20;99.90
8002;DHT22;4046;48.774;8.732;2022-07-22T14:46:56;33.40;99.90
8002;DHT22;4046;48.774;8.732;2022-07-22T14:49:22;33.70;99.90
8002;DHT22;4046;48.774;8.732;2022-07-22T14:51:48;33.50;99.90
8002;DHT22;4046;48.774;8.732;2022-07-22T14:54:13;32.90;99.90
8002;DHT22;4046;48.774;8.732;2022-07-22T14:56:39;32.20;99.90
8002;DHT22;4046;48.774;8.732;2022-07-22T14:59:05;32.10;99.90
8002;DHT22;4046;48.774;8.732;2022-07-22T15:01:31;32.00;99.90
8002;DHT22;4046;48.774;8.732;2022-07-22T15:03:57;32.00;99.90
8002;DHT22;4046;48.774;8.732;2022-07-22T15:06:23;32.10;99.90
8002;DHT22;4046;48.774;8.732;2022-07-22T15:08:49;32.40;99.90
8002;DHT22;4046;48.774;8.732;2022-07-22T15:11:14;32.70;99.90
8002;DHT22;4046;48.774;8.732;2022-07-22T15:13:40;32.80;99.90
8002;DHT22;4046;48.774;8.732;2022-07-22T15:16:08;32.40;99.90
8002;DHT22;4046;48.774;8.732;2022-07-22T15:18:36;32.00;99.90
8002;DHT22;4046;48.774;8.732;2022-07-22T15:21:01;31.50;99.90
8002;DHT22;4046;48.774;8.732;2022-07-22T15:23:27;31.70;99.90
8002;DHT22;4046;48.774;8.732;2022-07-22T15:25:58;32.10;99.90
8002;DHT22;4046;48.774;8.732;2022-07-22T15:28:24;32.50;99.90
8002;DHT22;4046;48.774;8.732;2022-07-22T15:30:52;33.00;99.90
8002;DHT22;4046;48.774;8.732;2022-07-22T15:33:17;33.30;99.90
8002;DHT22;4046;48.774;8.732;2022-07-22T15:35:45;33.30;99.90
8002;DHT22;4046;48.774;8.732;2022-07-22T15:38:11;33.40;99.90
8002;DHT22;4046;48.774;8.732;2022-07-22T15:40:37;33.40;99.90
8002;DHT22;4046;48.774;8.732;2022-07-22T15:43:05;33.50;99.90
8002;DHT22;4046;48.774;8.732;2022-07-22T15:45:31;33.60;99.90
8002;DHT22;4046;48.774;8.732;2022-07-22T15:47:57;33.70;99.90
8002;DHT22;4046;48.774;8.732;2022-07-22T15:50:23;33.90;99.90
8002;DHT22;4046;48.774;8.732;2022-07-22T15:52:49;33.80;99.90
8002;DHT22;4046;48.774;8.732;2022-07-22T15:55:16;33.80;99.90
8002;DHT22;4046;48.774;8.732;2022-07-22T15:57:42;33.80;99.90
8002;DHT22;4046;48.774;8.732;2022-07-22T16:00:27;33.70;99.90
8002;DHT22;4046;48.774;8.732;2022-07-22T16:02:53;33.30;99.90
8002;DHT22;4046;48.774;8.732;2022-07-22T16:05:19;33.40;99.90
8002;DHT22;4046;48.774;8.732;2022-07-22T16:07:45;33.30;99.90
8002;DHT22;4046;48.774;8.732;2022-07-22T16:10:10;33.30;99.90
8002;DHT22;4046;48.774;8.732;2022-07-22T16:12:36;33.00;99.90
8002;DHT22;4046;48.774;8.732;2022-07-22T16:15:03;33.00;99.90
8002;DHT22;4046;48.774;8.732;2022-07-22T16:17:28;32.90;99.90
8002;DHT22;4046;48.774;8.732;2022-07-22T16:19:54;32.70;99.90
8002;DHT22;4046;48.774;8.732;2022-07-22T16:22:20;32.70;99.90
8002;DHT22;4046;48.774;8.732;2022-07-22T16:24:46;32.70;99.90
8002;DHT22;4046;48.774;8.732;2022-07-22T16:27:12;32.50;99.90